createdAt,value
2019-03-09T00:01:34.620Z,2.10
2019-03-09T00:04:03.421Z,1.97
2019-03-09T00:06:32.220Z,2.10
2019-03-09T00:09:01.008Z,2.20
2019-03-09T00:11:29.960Z,2.03
2019-03-09T00:13:58.892Z,2.50
2019-03-09T00:16:27.804Z,2.47
2019-03-09T00:18:56.655Z,2.30
2019-03-09T00:21:25.692Z,2.60
2019-03-09T00:24:14.196Z,2.80
2019-03-09T00:27:03.968Z,2.30
2019-03-09T00:29:43.754Z,3.20
2019-03-09T00:32:16.275Z,2.87
2019-03-09T00:34:45.496Z,4.00
2019-03-09T00:37:15.108Z,3.80
2019-03-09T00:39:43.903Z,3.60
2019-03-09T00:42:12.775Z,3.87
2019-03-09T00:44:41.556Z,4.53
2019-03-09T00:47:10.553Z,4.30
2019-03-09T00:49:39.296Z,4.77
2019-03-09T00:52:08.604Z,4.30
2019-03-09T00:54:38.187Z,5.17
2019-03-09T00:57:07.016Z,5.47
2019-03-09T00:59:37.389Z,4.87
2019-03-09T01:02:06.417Z,5.73
2019-03-09T01:04:36.032Z,5.50
2019-03-09T01:07:05.265Z,6.13
2019-03-09T01:09:34.184Z,5.63
2019-03-09T01:12:02.951Z,6.73
2019-03-09T01:14:31.796Z,6.80
2019-03-09T01:17:01.058Z,6.83
2019-03-09T01:19:30.245Z,7.03
2019-03-09T01:21:59.803Z,6.67
2019-03-09T01:24:28.633Z,7.23
2019-03-09T01:26:57.664Z,5.13
2019-03-09T01:29:26.564Z,6.43
2019-03-09T01:31:55.408Z,6.43
2019-03-09T01:34:24.295Z,6.00
2019-03-09T01:36:53.191Z,5.73
2019-03-09T01:39:22.526Z,6.83
2019-03-09T01:41:54.347Z,6.50
2019-03-09T01:44:23.409Z,6.23
2019-03-09T01:46:52.188Z,6.53
2019-03-09T01:49:21.311Z,6.67
2019-03-09T01:51:50.333Z,5.93
2019-03-09T01:54:19.052Z,5.70
2019-03-09T01:56:47.827Z,6.67
2019-03-09T01:59:16.605Z,6.47
2019-03-09T02:01:45.472Z,6.40
2019-03-09T02:04:14.264Z,6.17
2019-03-09T02:06:43.619Z,6.33
2019-03-09T02:09:12.452Z,5.53
2019-03-09T02:11:41.376Z,5.83
2019-03-09T02:14:10.671Z,6.50
2019-03-09T02:16:39.542Z,5.23
2019-03-09T02:19:08.668Z,6.33
2019-03-09T02:21:37.392Z,5.90
2019-03-09T02:24:06.400Z,6.10
2019-03-09T02:26:35.418Z,7.20
2019-03-09T02:29:04.308Z,6.00
2019-03-09T02:31:33.122Z,6.70
2019-03-09T02:34:01.965Z,6.73
2019-03-09T02:36:30.961Z,7.37
2019-03-09T02:39:05.793Z,6.40
2019-03-09T02:41:34.629Z,7.40
2019-03-09T02:44:03.452Z,7.27
2019-03-09T02:46:32.844Z,6.77
2019-03-09T02:49:01.977Z,7.53
2019-03-09T02:51:30.857Z,7.83
2019-03-09T02:53:59.722Z,7.73
2019-03-09T02:56:28.776Z,7.50
2019-03-09T02:58:58.014Z,7.93
2019-03-09T03:01:57.888Z,5.43
2019-03-09T03:04:26.698Z,6.40
2019-03-09T03:06:56.485Z,7.40
2019-03-09T03:09:25.400Z,6.33
2019-03-09T03:11:54.260Z,6.30
2019-03-09T03:14:23.172Z,6.37
2019-03-09T03:16:52.033Z,7.60
2019-03-09T03:19:21.027Z,6.70
2019-03-09T03:21:50.222Z,6.40
2019-03-09T03:24:19.107Z,7.03
2019-03-09T03:26:47.844Z,6.27
2019-03-09T03:29:16.936Z,5.67
2019-03-09T03:31:45.821Z,6.13
2019-03-09T03:34:14.870Z,5.13
2019-03-09T03:36:44.069Z,5.03
2019-03-09T03:39:13.346Z,6.27
2019-03-09T03:41:42.129Z,5.57
2019-03-09T03:44:11.212Z,6.40
2019-03-09T03:46:40.372Z,6.43
2019-03-09T03:49:09.721Z,5.93
2019-03-09T03:51:38.898Z,6.50
2019-03-09T03:54:07.705Z,6.47
2019-03-09T03:56:40.025Z,7.47
2019-03-09T03:59:09.136Z,6.73
2019-03-09T04:01:38.217Z,7.77
2019-03-09T04:04:07.046Z,8.27
2019-03-09T04:06:36.621Z,7.43
2019-03-09T04:09:07.440Z,8.53
2019-03-09T04:11:36.273Z,8.43
2019-03-09T04:14:05.409Z,8.83
2019-03-09T04:16:34.233Z,8.63
2019-03-09T04:19:03.335Z,9.30
2019-03-09T04:21:32.431Z,9.50
2019-03-09T04:24:01.269Z,9.63
2019-03-09T04:26:30.633Z,8.23
2019-03-09T04:28:59.625Z,9.07
2019-03-09T04:31:28.695Z,9.47
2019-03-09T04:33:57.803Z,9.57
2019-03-09T04:36:26.609Z,8.87
2019-03-09T04:38:55.396Z,8.27
2019-03-09T04:41:24.195Z,7.10
2019-03-09T04:43:52.965Z,6.07
2019-03-09T04:46:21.741Z,7.93
2019-03-09T04:48:50.795Z,8.07
2019-03-09T04:51:21.558Z,9.20
2019-03-09T04:53:51.680Z,9.13
2019-03-09T04:56:20.483Z,9.70
2019-03-09T04:58:50.421Z,10.63
2019-03-09T05:01:19.192Z,9.87
2019-03-09T05:04:07.286Z,9.70
2019-03-09T05:06:36.187Z,9.40
2019-03-09T05:09:46.224Z,9.37
2019-03-09T05:12:15.556Z,8.07
2019-03-09T05:14:44.404Z,9.17
2019-03-09T05:17:13.345Z,8.63
2019-03-09T05:19:42.227Z,8.63
2019-03-09T05:22:11.256Z,7.70
2019-03-09T05:24:40.043Z,8.40
2019-03-09T05:27:08.839Z,8.03
2019-03-09T05:29:37.787Z,6.07
2019-03-09T05:32:06.952Z,6.60
2019-03-09T05:34:35.680Z,6.83
2019-03-09T05:37:04.673Z,6.30
2019-03-09T05:39:33.659Z,6.90
2019-03-09T05:42:02.855Z,6.57
2019-03-09T05:44:31.780Z,5.90
2019-03-09T05:47:01.162Z,6.20
2019-03-09T05:49:30.035Z,5.53
2019-03-09T05:52:33.334Z,5.77
2019-03-09T05:55:17.254Z,5.53
2019-03-09T05:57:46.376Z,5.53
2019-03-09T06:00:16.721Z,5.77
2019-03-09T06:02:45.770Z,5.83
2019-03-09T06:05:35.688Z,4.50
2019-03-09T06:08:04.991Z,4.17
2019-03-09T06:10:33.873Z,4.63
2019-03-09T06:13:02.921Z,3.20
2019-03-09T06:15:31.764Z,3.53
2019-03-09T06:18:00.563Z,3.20
2019-03-09T06:20:29.474Z,2.77
2019-03-09T06:22:58.536Z,3.43
2019-03-09T06:25:27.337Z,2.53
2019-03-09T06:27:56.309Z,2.57
2019-03-09T06:30:26.426Z,3.07
2019-03-09T06:33:26.576Z,3.40
2019-03-09T06:36:29.549Z,3.60
2019-03-09T06:39:08.260Z,2.97
2019-03-09T06:41:41.635Z,2.40
2019-03-09T06:44:11.792Z,4.47
2019-03-09T06:46:40.820Z,3.03
2019-03-09T06:49:11.924Z,2.87
2019-03-09T06:51:41.136Z,2.87
2019-03-09T06:54:10.031Z,4.03
2019-03-09T06:56:39.052Z,3.23
2019-03-09T06:59:08.221Z,3.77
2019-03-09T07:01:37.051Z,3.17
2019-03-09T07:04:05.952Z,2.80
2019-03-09T07:06:36.221Z,3.53
2019-03-09T07:09:06.352Z,3.80
2019-03-09T07:11:35.250Z,2.97
2019-03-09T07:14:40.483Z,3.17
2019-03-09T07:17:09.928Z,2.87
2019-03-09T07:19:39.192Z,2.50
2019-03-09T07:22:08.604Z,2.70
2019-03-09T07:24:37.564Z,3.37
2019-03-09T07:27:06.382Z,2.37
2019-03-09T07:29:36.012Z,3.07
2019-03-09T07:32:06.561Z,2.43
2019-03-09T07:34:35.328Z,3.93
2019-03-09T07:37:05.188Z,3.58
2019-03-09T07:39:34.059Z,3.72
2019-03-09T07:42:02.968Z,2.83
2019-03-09T07:44:31.716Z,3.30
2019-03-09T07:47:00.846Z,2.73
2019-03-09T07:49:29.750Z,3.10
2019-03-09T07:51:58.767Z,2.47
2019-03-09T07:54:29.049Z,4.57
2019-03-09T07:56:57.792Z,3.23
2019-03-09T07:59:26.815Z,3.40
2019-03-09T08:01:55.764Z,3.23
2019-03-09T08:04:25.042Z,3.03
2019-03-09T08:06:54.067Z,2.83
2019-03-09T08:09:24.563Z,3.70
2019-03-09T08:11:54.037Z,3.50
2019-03-09T08:14:24.284Z,3.40
2019-03-09T08:16:53.181Z,2.60
2019-03-09T08:19:22.103Z,2.90
2019-03-09T08:21:51.572Z,2.23
2019-03-09T08:24:20.465Z,3.07
2019-03-09T08:26:50.186Z,3.33
2019-03-09T08:29:19.179Z,2.83
2019-03-09T08:31:48.901Z,3.27
2019-03-09T08:34:18.693Z,2.77
2019-03-09T08:36:47.706Z,3.70
2019-03-09T08:39:16.776Z,3.27
2019-03-09T08:41:45.672Z,2.67
2019-03-09T08:44:14.585Z,2.37
2019-03-09T08:46:44.218Z,3.33
2019-03-09T08:49:14.607Z,2.30
2019-03-09T08:51:43.498Z,2.00
2019-03-09T08:54:12.333Z,2.90
2019-03-09T08:56:41.389Z,2.60
2019-03-09T08:59:10.313Z,2.27
2019-03-09T09:01:40.610Z,2.47
2019-03-09T09:04:09.553Z,2.77
2019-03-09T09:06:38.570Z,2.60
2019-03-09T09:09:07.664Z,2.90
2019-03-09T09:11:38.053Z,2.47
2019-03-09T09:14:07.819Z,1.93
2019-03-09T09:16:36.601Z,1.90
2019-03-09T09:19:05.514Z,2.53
2019-03-09T09:21:38.384Z,2.20
2019-03-09T09:24:07.398Z,3.33
2019-03-09T09:26:36.341Z,3.37
2019-03-09T09:29:05.621Z,1.97
2019-03-09T09:31:36.285Z,2.70
2019-03-09T09:34:05.635Z,2.70
2019-03-09T09:36:35.297Z,2.77
2019-03-09T09:39:05.609Z,3.07
2019-03-09T09:41:35.137Z,1.80
2019-03-09T09:44:04.699Z,2.90
2019-03-09T09:46:33.764Z,2.13
2019-03-09T09:49:02.799Z,3.50
2019-03-09T09:51:31.643Z,3.10
2019-03-09T09:54:00.347Z,2.90
2019-03-09T09:56:30.073Z,2.27
2019-03-09T09:58:58.861Z,2.80
2019-03-09T10:01:27.692Z,2.07
2019-03-09T10:03:58.017Z,2.50
2019-03-09T10:06:29.116Z,2.00
2019-03-09T10:08:58.324Z,2.23
2019-03-09T10:11:27.241Z,1.53
2019-03-09T10:13:56.293Z,2.40
2019-03-09T10:16:25.027Z,1.87
2019-03-09T10:18:54.969Z,1.73
2019-03-09T10:21:24.769Z,2.43
2019-03-09T10:23:54.399Z,2.10
2019-03-09T10:26:26.484Z,2.50
2019-03-09T10:28:54.595Z,2.33
2019-03-09T10:31:24.131Z,2.03
2019-03-09T10:33:52.946Z,1.77
2019-03-09T10:36:22.118Z,2.07
2019-03-09T10:38:51.040Z,1.80
2019-03-09T10:41:19.781Z,2.47
2019-03-09T10:43:48.960Z,2.00
2019-03-09T10:46:17.825Z,2.50
2019-03-09T10:48:46.577Z,2.03
2019-03-09T10:51:15.518Z,2.13
2019-03-09T10:53:44.267Z,1.83
2019-03-09T10:56:13.253Z,2.57
2019-03-09T10:58:42.201Z,2.13
2019-03-09T11:01:11.045Z,2.10
2019-03-09T11:03:40.016Z,2.47
2019-03-09T11:06:09.152Z,2.37
2019-03-09T11:08:38.280Z,2.20
2019-03-09T11:11:07.164Z,2.17
2019-03-09T11:13:35.992Z,3.40
2019-03-09T11:16:04.779Z,1.90
2019-03-09T11:18:34.983Z,3.00
2019-03-09T11:21:03.923Z,1.90
2019-03-09T11:23:34.456Z,2.37
2019-03-09T11:26:04.984Z,2.23
2019-03-09T11:28:33.800Z,2.30
2019-03-09T11:31:02.681Z,2.33
2019-03-09T11:33:31.602Z,2.03
2019-03-09T11:36:00.611Z,2.07
2019-03-09T11:38:30.003Z,2.37
2019-03-09T11:41:00.711Z,2.23
2019-03-09T11:43:29.260Z,2.37
2019-03-09T11:45:59.036Z,2.27
2019-03-09T11:48:29.569Z,2.40
2019-03-09T11:50:59.928Z,1.60
2019-03-09T11:53:29.649Z,2.50
2019-03-09T11:55:58.819Z,3.10
2019-03-09T11:58:27.698Z,2.20
2019-03-09T12:00:57.092Z,2.57
2019-03-09T12:03:26.196Z,2.30
2019-03-09T12:05:54.968Z,2.97
2019-03-09T12:08:23.844Z,1.83
2019-03-09T12:10:52.832Z,2.20
2019-03-09T12:13:21.552Z,1.93
2019-03-09T12:15:50.321Z,1.80
2019-03-09T12:18:19.052Z,1.93
2019-03-09T12:20:47.921Z,1.60
2019-03-09T12:23:23.343Z,1.80
2019-03-09T12:25:52.457Z,1.83
2019-03-09T12:28:24.396Z,1.70
2019-03-09T12:30:53.413Z,1.90
2019-03-09T12:33:22.508Z,2.57
2019-03-09T12:35:51.444Z,1.90
2019-03-09T12:38:20.552Z,1.83
2019-03-09T12:40:52.280Z,2.00
2019-03-09T12:43:21.144Z,2.60
2019-03-09T12:45:50.569Z,2.43
2019-03-09T12:48:38.629Z,2.23
2019-03-09T12:51:07.570Z,2.40
2019-03-09T12:53:36.398Z,2.40
2019-03-09T12:56:05.719Z,2.40
2019-03-09T12:58:34.494Z,2.10
2019-03-09T13:01:03.460Z,2.07
2019-03-09T13:03:32.377Z,2.03
2019-03-09T13:06:01.544Z,2.40
2019-03-09T13:08:31.428Z,1.43
2019-03-09T13:11:00.306Z,2.23
2019-03-09T13:13:29.278Z,1.77
2019-03-09T13:15:58.320Z,2.00
2019-03-09T13:18:27.436Z,1.97
2019-03-09T13:20:56.414Z,2.10
2019-03-09T13:23:25.716Z,2.20
2019-03-09T13:25:54.520Z,1.80
2019-03-09T13:28:23.521Z,2.13
2019-03-09T13:30:52.393Z,2.47
2019-03-09T13:33:21.150Z,2.13
2019-03-09T13:35:50.452Z,2.47
2019-03-09T13:38:19.235Z,2.20
2019-03-09T13:40:48.248Z,2.00
2019-03-09T13:43:17.440Z,1.90
2019-03-09T13:45:46.732Z,2.30
2019-03-09T13:48:15.869Z,1.83
2019-03-09T13:50:44.625Z,2.27
2019-03-09T13:53:13.589Z,2.10
2019-03-09T13:55:42.581Z,2.20
2019-03-09T13:58:11.320Z,1.77
2019-03-09T14:00:41.030Z,2.00
2019-03-09T14:03:11.171Z,1.83
2019-03-09T14:05:40.338Z,1.40
2019-03-09T14:08:09.224Z,1.53
2019-03-09T14:10:38.496Z,1.70
2019-03-09T14:13:07.449Z,2.20
2019-03-09T14:15:36.243Z,1.80
2019-03-09T14:18:05.356Z,1.77
2019-03-09T14:20:34.561Z,1.67
2019-03-09T14:23:04.188Z,1.57
2019-03-09T14:25:32.947Z,1.80
2019-03-09T14:28:01.724Z,1.57
2019-03-09T14:30:31.706Z,1.83
2019-03-09T14:33:00.476Z,1.60
2019-03-09T14:35:29.284Z,1.97
2019-03-09T14:37:58.156Z,1.50
2019-03-09T14:40:27.429Z,1.53
2019-03-09T14:42:56.367Z,2.13
2019-03-09T14:45:25.297Z,2.50
2019-03-09T14:47:54.528Z,1.67
2019-03-09T14:50:23.645Z,1.67
2019-03-09T14:52:53.236Z,1.77
2019-03-09T14:55:22.070Z,2.00
2019-03-09T14:57:51.101Z,1.50
2019-03-09T15:00:20.933Z,1.47
2019-03-09T15:02:50.023Z,2.03
2019-03-09T15:05:18.856Z,2.20
2019-03-09T15:07:47.892Z,1.90
2019-03-09T15:10:16.811Z,1.53
2019-03-09T15:12:45.971Z,1.83
2019-03-09T15:15:15.425Z,1.73
2019-03-09T15:17:44.757Z,1.67
2019-03-09T15:20:14.073Z,1.90
2019-03-09T15:22:43.467Z,1.70
2019-03-09T15:25:12.596Z,2.20
2019-03-09T15:27:41.331Z,1.50
2019-03-09T15:30:12.544Z,1.87
2019-03-09T15:32:41.364Z,1.30
2019-03-09T15:35:10.473Z,1.37
2019-03-09T15:37:39.607Z,1.67
2019-03-09T15:40:09.092Z,1.47
2019-03-09T15:42:38.130Z,1.80
2019-03-09T15:45:07.953Z,1.90
2019-03-09T15:47:36.836Z,1.50
2019-03-09T15:50:06.200Z,1.80
2019-03-09T15:52:35.313Z,1.67
2019-03-09T15:55:05.375Z,1.42
2019-03-09T15:57:34.377Z,1.27
2019-03-09T16:00:04.274Z,1.63
2019-03-09T16:02:33.094Z,1.60
2019-03-09T16:05:02.000Z,2.02
2019-03-09T16:07:30.749Z,1.95
2019-03-09T16:10:00.314Z,2.03
2019-03-09T16:12:30.661Z,1.40
2019-03-09T16:14:59.481Z,1.27
2019-03-09T16:17:28.557Z,1.27
2019-03-09T16:19:57.366Z,1.07
2019-03-09T16:22:26.189Z,0.73
2019-03-09T16:24:54.940Z,1.23
2019-03-09T16:27:23.860Z,0.87
2019-03-09T16:29:52.949Z,1.20
2019-03-09T16:32:21.936Z,0.90
2019-03-09T16:34:52.891Z,0.60
2019-03-09T16:37:21.604Z,1.20
2019-03-09T16:39:50.740Z,1.00
2019-03-09T16:42:19.754Z,1.13
2019-03-09T16:44:48.587Z,1.30
2019-03-09T16:47:17.411Z,1.20
2019-03-09T16:49:46.438Z,1.37
2019-03-09T16:52:15.237Z,1.50
2019-03-09T16:54:43.941Z,1.30
2019-03-09T16:57:13.201Z,1.37
2019-03-09T16:59:44.237Z,1.37
2019-03-09T17:02:13.439Z,1.57
2019-03-09T17:04:42.219Z,1.40
2019-03-09T17:07:10.980Z,1.83
2019-03-09T17:09:40.176Z,1.50
2019-03-09T17:12:11.208Z,1.30
2019-03-09T17:14:40.013Z,1.30
2019-03-09T17:17:09.191Z,1.73
2019-03-09T17:19:38.059Z,1.37
2019-03-09T17:22:07.040Z,1.20
2019-03-09T17:24:36.967Z,1.10
2019-03-09T17:27:05.969Z,0.67
2019-03-09T17:29:35.550Z,0.80
2019-03-09T17:32:04.343Z,0.80
2019-03-09T17:34:33.288Z,0.50
2019-03-09T17:37:02.703Z,0.73
2019-03-09T17:39:31.580Z,0.47
2019-03-09T17:42:00.469Z,0.60
2019-03-09T17:44:29.302Z,0.63
2019-03-09T17:46:58.456Z,0.80
2019-03-09T17:49:27.350Z,1.20
2019-03-09T17:51:56.087Z,0.97
2019-03-09T17:54:24.829Z,0.80
2019-03-09T17:56:53.787Z,1.10
2019-03-09T17:59:22.530Z,1.00
2019-03-09T18:01:51.382Z,0.93
2019-03-09T18:04:20.464Z,1.10
2019-03-09T18:06:49.808Z,0.90
2019-03-09T18:09:18.613Z,0.57
2019-03-09T18:11:47.372Z,0.60
2019-03-09T18:14:16.155Z,0.43
2019-03-09T18:16:52.492Z,0.97
2019-03-09T18:19:15.968Z,0.53
2019-03-09T18:21:44.794Z,0.90
2019-03-09T18:24:13.573Z,0.80
2019-03-09T18:26:42.793Z,0.40
2019-03-09T18:29:12.376Z,0.80
2019-03-09T18:31:41.251Z,0.70
2019-03-09T18:34:10.221Z,0.50
2019-03-09T18:36:39.055Z,0.50
2019-03-09T18:39:07.849Z,0.70
2019-03-09T18:41:36.722Z,0.73
2019-03-09T18:44:05.515Z,0.60
2019-03-09T18:46:34.856Z,0.47
2019-03-09T18:49:03.833Z,0.70
2019-03-09T18:51:32.566Z,0.67
2019-03-09T18:54:01.427Z,0.60
2019-03-09T18:56:30.504Z,0.90
2019-03-09T18:58:59.229Z,1.13
2019-03-09T19:01:28.320Z,1.43
2019-03-09T19:03:57.160Z,1.90
2019-03-09T19:06:26.076Z,1.50
2019-03-09T19:08:55.047Z,1.63
2019-03-09T19:11:24.855Z,1.30
2019-03-09T19:13:54.014Z,1.27
2019-03-09T19:16:22.735Z,1.23
2019-03-09T19:18:51.624Z,1.80
2019-03-09T19:21:20.471Z,1.30
2019-03-09T19:23:49.412Z,1.43
2019-03-09T19:26:18.227Z,1.13
2019-03-09T19:28:47.100Z,1.00
2019-03-09T19:31:20.629Z,0.90
2019-03-09T19:33:49.700Z,1.07
2019-03-09T19:36:18.684Z,1.23
2019-03-09T19:38:47.448Z,1.23
2019-03-09T19:41:16.244Z,1.43
2019-03-09T19:43:45.280Z,2.23
2019-03-09T19:46:14.037Z,1.63
2019-03-09T19:48:42.798Z,0.97
2019-03-09T19:51:11.613Z,1.20
2019-03-09T19:53:40.402Z,2.10
2019-03-09T19:56:09.212Z,1.50
2019-03-09T19:58:39.149Z,1.47
2019-03-09T20:01:08.068Z,1.60
2019-03-09T20:03:37.089Z,1.40
2019-03-09T20:06:05.919Z,2.33
2019-03-09T20:08:34.760Z,1.40
2019-03-09T20:11:04.761Z,3.30
2019-03-09T20:13:34.017Z,2.17
2019-03-09T20:16:02.993Z,1.53
2019-03-09T20:18:31.776Z,2.30
2019-03-09T20:21:01.777Z,1.33
2019-03-09T20:23:30.611Z,1.90
2019-03-09T20:25:59.348Z,2.40
2019-03-09T20:28:29.160Z,2.10
2019-03-09T20:30:58.050Z,2.23
2019-03-09T20:33:26.859Z,2.07
2019-03-09T20:35:55.670Z,1.83
2019-03-09T20:38:24.628Z,1.70
2019-03-09T20:40:53.421Z,1.47
2019-03-09T20:43:22.792Z,1.93
2019-03-09T20:45:52.517Z,2.80
2019-03-09T20:48:21.541Z,2.33
2019-03-09T20:50:50.573Z,1.20
2019-03-09T20:53:19.504Z,1.80
2019-03-09T20:55:48.656Z,1.87
2019-03-09T20:58:17.509Z,1.43
2019-03-09T21:00:46.453Z,1.63
2019-03-09T21:03:15.430Z,1.57
2019-03-09T21:05:44.504Z,1.70
2019-03-09T21:08:13.557Z,1.87
2019-03-09T21:10:42.260Z,1.77
2019-03-09T21:13:11.272Z,1.70
2019-03-09T21:15:40.162Z,1.87
2019-03-09T21:18:09.159Z,1.70
2019-03-09T21:20:38.312Z,2.30
2019-03-09T21:23:07.165Z,2.17
2019-03-09T21:25:35.949Z,1.73
2019-03-09T21:28:05.183Z,1.33
2019-03-09T21:30:34.260Z,1.57
2019-03-09T21:33:03.562Z,1.40
2019-03-09T21:35:33.224Z,1.00
2019-03-09T21:38:02.426Z,0.93
2019-03-09T21:40:31.438Z,1.27
2019-03-09T21:43:00.216Z,0.80
2019-03-09T21:45:29.492Z,0.93
2019-03-09T21:47:58.626Z,1.00
2019-03-09T21:50:27.538Z,1.00
2019-03-09T21:52:56.283Z,0.90
2019-03-09T21:55:25.156Z,1.13
2019-03-09T21:57:54.024Z,0.90
2019-03-09T22:00:23.139Z,1.40
2019-03-09T22:02:51.948Z,1.23
2019-03-09T22:05:20.759Z,1.37
2019-03-09T22:07:49.596Z,1.23
2019-03-09T22:10:18.368Z,1.20
2019-03-09T22:13:06.325Z,1.63
2019-03-09T22:15:35.201Z,1.40
2019-03-09T22:18:04.476Z,1.50
2019-03-09T22:20:33.374Z,1.37
2019-03-09T22:23:02.328Z,2.13
2019-03-09T22:25:31.681Z,2.10
2019-03-09T22:28:00.502Z,2.23
2019-03-09T22:30:29.245Z,1.63
2019-03-09T22:32:58.276Z,2.13
2019-03-09T22:35:27.194Z,1.53
2019-03-09T22:37:56.367Z,1.63
2019-03-09T22:40:25.151Z,1.83
2019-03-09T22:42:54.733Z,1.23
2019-03-09T22:45:23.457Z,1.97
2019-03-09T22:47:52.280Z,2.17
2019-03-09T22:50:21.148Z,1.70
2019-03-09T22:52:50.239Z,1.63
2019-03-09T22:55:18.956Z,1.83
2019-03-09T22:57:48.107Z,1.80
2019-03-09T23:00:18.018Z,1.77
2019-03-09T23:02:46.900Z,1.50
2019-03-09T23:05:16.135Z,1.70
2019-03-09T23:07:45.031Z,1.50
2019-03-09T23:10:15.243Z,1.60
2019-03-09T23:12:44.482Z,2.17
2019-03-09T23:15:13.972Z,1.43
2019-03-09T23:17:43.539Z,1.40
2019-03-09T23:20:13.237Z,1.97
2019-03-09T23:22:42.155Z,1.13
2019-03-09T23:25:11.295Z,1.20
2019-03-09T23:27:40.147Z,1.17
2019-03-09T23:30:12.681Z,1.37
2019-03-09T23:32:41.577Z,1.70
2019-03-09T23:35:11.580Z,1.73
2019-03-09T23:37:40.534Z,1.23
2019-03-09T23:40:09.548Z,1.37
2019-03-09T23:42:38.979Z,1.30
2019-03-09T23:45:09.364Z,1.60
2019-03-09T23:47:38.175Z,1.20
2019-03-09T23:50:08.420Z,1.70
2019-03-09T23:52:37.311Z,1.33
2019-03-09T23:55:06.420Z,1.37
2019-03-09T23:57:36.323Z,1.17
